sensor_id;sensor_type;location;lat;lon;timestamp;P1;durP1;ratioP1;P2;durP2;ratioP2
64282;SDS011;50497;50.720;-2.084;2023-09-19T00:01:52;0.00;;;0.00;;
64282;SDS011;50497;50.720;-2.084;2023-09-19T00:04:18;0.00;;;0.00;;
64282;SDS011;50497;50.720;-2.084;2023-09-19T00:06:48;0.00;;;0.00;;
64282;SDS011;50497;50.720;-2.084;2023-09-19T00:09:13;0.00;;;0.00;;
64282;SDS011;50497;50.720;-2.084;2023-09-19T00:11:39;0.00;;;0.00;;
64282;SDS011;50497;50.720;-2.084;2023-09-19T00:14:06;0.00;;;0.00;;
64282;SDS011;50497;50.720;-2.084;2023-09-19T00:16:33;0.00;;;0.00;;
64282;SDS011;50497;50.720;-2.084;2023-09-19T00:18:59;0.00;;;0.00;;
64282;SDS011;50497;50.720;-2.084;2023-09-19T00:21:31;0.00;;;0.00;;
64282;SDS011;50497;50.720;-2.084;2023-09-19T00:23:56;0.00;;;0.00;;
64282;SDS011;50497;50.720;-2.084;2023-09-19T00:26:22;0.00;;;0.00;;
64282;SDS011;50497;50.720;-2.084;2023-09-19T00:28:47;0.00;;;0.00;;
64282;SDS011;50497;50.720;-2.084;2023-09-19T00:31:13;0.00;;;0.00;;
64282;SDS011;50497;50.720;-2.084;2023-09-19T00:33:38;0.00;;;0.00;;
64282;SDS011;50497;50.720;-2.084;2023-09-19T00:36:03;0.05;;;0.05;;
64282;SDS011;50497;50.720;-2.084;2023-09-19T00:38:30;0.00;;;0.00;;
64282;SDS011;50497;50.720;-2.084;2023-09-19T00:43:22;0.00;;;0.00;;
64282;SDS011;50497;50.720;-2.084;2023-09-19T00:45:49;0.00;;;0.00;;
64282;SDS011;50497;50.720;-2.084;2023-09-19T00:48:16;0.00;;;0.00;;
64282;SDS011;50497;50.720;-2.084;2023-09-19T00:50:43;0.00;;;0.00;;
64282;SDS011;50497;50.720;-2.084;2023-09-19T00:55:40;0.00;;;0.00;;
64282;SDS011;50497;50.720;-2.084;2023-09-19T00:58:07;0.00;;;0.00;;
64282;SDS011;50497;50.720;-2.084;2023-09-19T01:00:35;0.00;;;0.00;;
64282;SDS011;50497;50.720;-2.084;2023-09-19T01:03:00;0.00;;;0.00;;
64282;SDS011;50497;50.720;-2.084;2023-09-19T01:05:27;0.00;;;0.00;;
64282;SDS011;50497;50.720;-2.084;2023-09-19T01:07:53;0.00;;;0.00;;
64282;SDS011;50497;50.720;-2.084;2023-09-19T01:10:18;0.00;;;0.00;;
64282;SDS011;50497;50.720;-2.084;2023-09-19T01:21:38;0.00;;;0.00;;
64282;SDS011;50497;50.720;-2.084;2023-09-19T01:27:00;0.00;;;0.00;;
64282;SDS011;50497;50.720;-2.084;2023-09-19T01:29:44;0.05;;;0.05;;
64282;SDS011;50497;50.720;-2.084;2023-09-19T01:32:12;0.03;;;0.03;;
64282;SDS011;50497;50.720;-2.084;2023-09-19T01:34:47;0.15;;;0.15;;
64282;SDS011;50497;50.720;-2.084;2023-09-19T01:37:18;0.00;;;0.00;;
64282;SDS011;50497;50.720;-2.084;2023-09-19T01:39:53;0.00;;;0.00;;
64282;SDS011;50497;50.720;-2.084;2023-09-19T01:43:05;0.10;;;0.10;;
64282;SDS011;50497;50.720;-2.084;2023-09-19T01:45:34;0.10;;;0.10;;
64282;SDS011;50497;50.720;-2.084;2023-09-19T01:53:15;0.00;;;0.00;;
64282;SDS011;50497;50.720;-2.084;2023-09-19T01:55:49;0.00;;;0.00;;
64282;SDS011;50497;50.720;-2.084;2023-09-19T01:58:21;0.00;;;0.00;;
64282;SDS011;50497;50.720;-2.084;2023-09-19T02:00:51;0.00;;;0.00;;
64282;SDS011;50497;50.720;-2.084;2023-09-19T02:03:20;0.00;;;0.00;;
64282;SDS011;50497;50.720;-2.084;2023-09-19T02:05:51;0.00;;;0.00;;
64282;SDS011;50497;50.720;-2.084;2023-09-19T02:08:19;0.10;;;0.10;;
64282;SDS011;50497;50.720;-2.084;2023-09-19T02:10:45;0.08;;;0.08;;
64282;SDS011;50497;50.720;-2.084;2023-09-19T02:13:15;0.00;;;0.00;;
64282;SDS011;50497;50.720;-2.084;2023-09-19T02:15:44;0.00;;;0.00;;
64282;SDS011;50497;50.720;-2.084;2023-09-19T02:18:11;0.30;;;0.10;;
64282;SDS011;50497;50.720;-2.084;2023-09-19T02:20:37;0.00;;;0.00;;
64282;SDS011;50497;50.720;-2.084;2023-09-19T02:23:02;0.00;;;0.00;;
64282;SDS011;50497;50.720;-2.084;2023-09-19T02:25:28;0.00;;;0.00;;
64282;SDS011;50497;50.720;-2.084;2023-09-19T02:27:54;0.20;;;0.20;;
64282;SDS011;50497;50.720;-2.084;2023-09-19T02:30:19;0.00;;;0.00;;
64282;SDS011;50497;50.720;-2.084;2023-09-19T02:32:50;0.00;;;0.00;;
64282;SDS011;50497;50.720;-2.084;2023-09-19T02:35:16;0.10;;;0.10;;
64282;SDS011;50497;50.720;-2.084;2023-09-19T02:37:41;0.00;;;0.00;;
64282;SDS011;50497;50.720;-2.084;2023-09-19T02:40:07;0.08;;;0.08;;
64282;SDS011;50497;50.720;-2.084;2023-09-19T02:42:43;0.00;;;0.00;;
64282;SDS011;50497;50.720;-2.084;2023-09-19T02:45:13;0.00;;;0.00;;
64282;SDS011;50497;50.720;-2.084;2023-09-19T02:47:43;0.00;;;0.00;;
64282;SDS011;50497;50.720;-2.084;2023-09-19T02:50:09;0.00;;;0.00;;
64282;SDS011;50497;50.720;-2.084;2023-09-19T02:52:36;0.00;;;0.00;;
64282;SDS011;50497;50.720;-2.084;2023-09-19T02:55:01;0.17;;;0.17;;
64282;SDS011;50497;50.720;-2.084;2023-09-19T02:57:28;0.05;;;0.05;;
64282;SDS011;50497;50.720;-2.084;2023-09-19T02:59:54;0.00;;;0.00;;
64282;SDS011;50497;50.720;-2.084;2023-09-19T03:02:19;0.00;;;0.00;;
64282;SDS011;50497;50.720;-2.084;2023-09-19T03:04:45;0.00;;;0.00;;
64282;SDS011;50497;50.720;-2.084;2023-09-19T03:07:12;0.10;;;0.10;;
64282;SDS011;50497;50.720;-2.084;2023-09-19T03:09:37;0.00;;;0.00;;
64282;SDS011;50497;50.720;-2.084;2023-09-19T03:12:03;0.05;;;0.05;;
64282;SDS011;50497;50.720;-2.084;2023-09-19T03:14:29;0.10;;;0.10;;
64282;SDS011;50497;50.720;-2.084;2023-09-19T03:17:00;0.00;;;0.00;;
64282;SDS011;50497;50.720;-2.084;2023-09-19T03:19:25;0.10;;;0.10;;
64282;SDS011;50497;50.720;-2.084;2023-09-19T03:21:51;0.00;;;0.00;;
64282;SDS011;50497;50.720;-2.084;2023-09-19T03:24:18;0.00;;;0.00;;
64282;SDS011;50497;50.720;-2.084;2023-09-19T03:26:43;0.00;;;0.00;;
64282;SDS011;50497;50.720;-2.084;2023-09-19T03:29:10;0.00;;;0.00;;
64282;SDS011;50497;50.720;-2.084;2023-09-19T03:31:35;0.05;;;0.05;;
64282;SDS011;50497;50.720;-2.084;2023-09-19T03:34:02;0.00;;;0.00;;
64282;SDS011;50497;50.720;-2.084;2023-09-19T03:36:28;0.00;;;0.00;;
64282;SDS011;50497;50.720;-2.084;2023-09-19T03:38:54;0.03;;;0.03;;
64282;SDS011;50497;50.720;-2.084;2023-09-19T03:41:19;0.00;;;0.00;;
64282;SDS011;50497;50.720;-2.084;2023-09-19T03:43:45;0.00;;;0.00;;
64282;SDS011;50497;50.720;-2.084;2023-09-19T03:46:10;0.00;;;0.00;;
64282;SDS011;50497;50.720;-2.084;2023-09-19T03:48:37;0.00;;;0.00;;
64282;SDS011;50497;50.720;-2.084;2023-09-19T03:51:03;0.00;;;0.00;;
64282;SDS011;50497;50.720;-2.084;2023-09-19T03:53:28;0.05;;;0.05;;
64282;SDS011;50497;50.720;-2.084;2023-09-19T03:55:53;0.00;;;0.00;;
64282;SDS011;50497;50.720;-2.084;2023-09-19T04:00:45;0.00;;;0.00;;
64282;SDS011;50497;50.720;-2.084;2023-09-19T04:03:11;0.00;;;0.00;;
64282;SDS011;50497;50.720;-2.084;2023-09-19T04:05:44;0.00;;;0.00;;
64282;SDS011;50497;50.720;-2.084;2023-09-19T04:08:11;0.00;;;0.00;;
64282;SDS011;50497;50.720;-2.084;2023-09-19T04:10:36;0.00;;;0.00;;
64282;SDS011;50497;50.720;-2.084;2023-09-19T04:13:02;0.00;;;0.00;;
64282;SDS011;50497;50.720;-2.084;2023-09-19T04:15:29;0.00;;;0.00;;
64282;SDS011;50497;50.720;-2.084;2023-09-19T04:17:54;0.10;;;0.10;;
64282;SDS011;50497;50.720;-2.084;2023-09-19T04:20:20;0.10;;;0.10;;
64282;SDS011;50497;50.720;-2.084;2023-09-19T04:22:47;0.00;;;0.00;;
64282;SDS011;50497;50.720;-2.084;2023-09-19T04:25:13;0.10;;;0.10;;
64282;SDS011;50497;50.720;-2.084;2023-09-19T04:27:38;0.10;;;0.10;;
64282;SDS011;50497;50.720;-2.084;2023-09-19T04:30:06;0.00;;;0.00;;
64282;SDS011;50497;50.720;-2.084;2023-09-19T04:32:36;0.00;;;0.00;;
64282;SDS011;50497;50.720;-2.084;2023-09-19T04:35:05;0.10;;;0.10;;
64282;SDS011;50497;50.720;-2.084;2023-09-19T04:37:33;0.10;;;0.10;;
64282;SDS011;50497;50.720;-2.084;2023-09-19T04:39:58;0.15;;;0.15;;
64282;SDS011;50497;50.720;-2.084;2023-09-19T04:42:23;0.00;;;0.00;;
64282;SDS011;50497;50.720;-2.084;2023-09-19T04:44:50;0.10;;;0.10;;
64282;SDS011;50497;50.720;-2.084;2023-09-19T04:47:18;0.10;;;0.10;;
64282;SDS011;50497;50.720;-2.084;2023-09-19T04:49:44;0.10;;;0.10;;
64282;SDS011;50497;50.720;-2.084;2023-09-19T04:52:09;0.10;;;0.10;;
64282;SDS011;50497;50.720;-2.084;2023-09-19T04:54:34;0.30;;;0.30;;
64282;SDS011;50497;50.720;-2.084;2023-09-19T04:57:00;0.40;;;0.40;;
64282;SDS011;50497;50.720;-2.084;2023-09-19T04:59:26;0.00;;;0.00;;
64282;SDS011;50497;50.720;-2.084;2023-09-19T05:01:51;0.20;;;0.20;;
64282;SDS011;50497;50.720;-2.084;2023-09-19T05:04:16;0.65;;;0.52;;
64282;SDS011;50497;50.720;-2.084;2023-09-19T05:06:41;0.63;;;0.45;;
64282;SDS011;50497;50.720;-2.084;2023-09-19T05:09:07;0.10;;;0.10;;
64282;SDS011;50497;50.720;-2.084;2023-09-19T05:11:33;0.40;;;0.40;;
64282;SDS011;50497;50.720;-2.084;2023-09-19T05:13:59;0.00;;;0.00;;
64282;SDS011;50497;50.720;-2.084;2023-09-19T05:16:28;0.20;;;0.20;;
64282;SDS011;50497;50.720;-2.084;2023-09-19T05:18:56;0.05;;;0.05;;
64282;SDS011;50497;50.720;-2.084;2023-09-19T05:21:23;0.00;;;0.00;;
64282;SDS011;50497;50.720;-2.084;2023-09-19T05:23:51;0.15;;;0.15;;
64282;SDS011;50497;50.720;-2.084;2023-09-19T05:26:17;0.00;;;0.00;;
64282;SDS011;50497;50.720;-2.084;2023-09-19T05:28:43;0.10;;;0.10;;
64282;SDS011;50497;50.720;-2.084;2023-09-19T05:31:08;0.40;;;0.40;;
64282;SDS011;50497;50.720;-2.084;2023-09-19T05:33:34;0.20;;;0.20;;
64282;SDS011;50497;50.720;-2.084;2023-09-19T05:35:59;0.10;;;0.10;;
64282;SDS011;50497;50.720;-2.084;2023-09-19T05:38:24;0.10;;;0.10;;
64282;SDS011;50497;50.720;-2.084;2023-09-19T05:40:52;0.10;;;0.10;;
64282;SDS011;50497;50.720;-2.084;2023-09-19T05:43:18;0.77;;;0.47;;
64282;SDS011;50497;50.720;-2.084;2023-09-19T05:45:44;0.73;;;0.60;;
64282;SDS011;50497;50.720;-2.084;2023-09-19T05:48:11;2.17;;;0.80;;
64282;SDS011;50497;50.720;-2.084;2023-09-19T05:50:41;2.13;;;0.90;;
64282;SDS011;50497;50.720;-2.084;2023-09-19T05:53:07;1.02;;;0.63;;
64282;SDS011;50497;50.720;-2.084;2023-09-19T05:55:37;1.35;;;0.80;;
64282;SDS011;50497;50.720;-2.084;2023-09-19T05:58:02;1.10;;;0.57;;
64282;SDS011;50497;50.720;-2.084;2023-09-19T06:02:57;1.05;;;0.55;;
64282;SDS011;50497;50.720;-2.084;2023-09-19T06:05:23;0.70;;;0.60;;
64282;SDS011;50497;50.720;-2.084;2023-09-19T06:07:51;0.40;;;0.40;;
64282;SDS011;50497;50.720;-2.084;2023-09-19T06:10:17;0.03;;;0.03;;
64282;SDS011;50497;50.720;-2.084;2023-09-19T06:12:45;0.30;;;0.30;;
64282;SDS011;50497;50.720;-2.084;2023-09-19T06:15:14;0.00;;;0.00;;
64282;SDS011;50497;50.720;-2.084;2023-09-19T06:17:44;0.43;;;0.43;;
64282;SDS011;50497;50.720;-2.084;2023-09-19T06:20:12;0.38;;;0.38;;
64282;SDS011;50497;50.720;-2.084;2023-09-19T06:22:41;0.20;;;0.20;;
64282;SDS011;50497;50.720;-2.084;2023-09-19T06:25:07;0.17;;;0.17;;
64282;SDS011;50497;50.720;-2.084;2023-09-19T06:27:36;0.30;;;0.30;;
64282;SDS011;50497;50.720;-2.084;2023-09-19T06:30:01;0.63;;;0.63;;
64282;SDS011;50497;50.720;-2.084;2023-09-19T06:32:28;0.73;;;0.60;;
64282;SDS011;50497;50.720;-2.084;2023-09-19T06:34:54;1.70;;;0.88;;
64282;SDS011;50497;50.720;-2.084;2023-09-19T06:37:20;1.40;;;0.80;;
64282;SDS011;50497;50.720;-2.084;2023-09-19T06:39:46;1.38;;;0.70;;
64282;SDS011;50497;50.720;-2.084;2023-09-19T06:42:14;2.00;;;0.90;;
64282;SDS011;50497;50.720;-2.084;2023-09-19T06:44:42;0.63;;;0.63;;
64282;SDS011;50497;50.720;-2.084;2023-09-19T06:47:08;0.40;;;0.40;;
64282;SDS011;50497;50.720;-2.084;2023-09-19T06:49:34;0.30;;;0.30;;
64282;SDS011;50497;50.720;-2.084;2023-09-19T06:52:00;0.35;;;0.35;;
64282;SDS011;50497;50.720;-2.084;2023-09-19T06:54:25;0.47;;;0.40;;
64282;SDS011;50497;50.720;-2.084;2023-09-19T06:56:54;0.45;;;0.45;;
64282;SDS011;50497;50.720;-2.084;2023-09-19T06:59:20;0.22;;;0.22;;
64282;SDS011;50497;50.720;-2.084;2023-09-19T07:01:46;0.93;;;0.65;;
64282;SDS011;50497;50.720;-2.084;2023-09-19T07:04:12;1.45;;;0.90;;
64282;SDS011;50497;50.720;-2.084;2023-09-19T07:06:37;1.55;;;0.80;;
64282;SDS011;50497;50.720;-2.084;2023-09-19T07:09:03;0.77;;;0.70;;
64282;SDS011;50497;50.720;-2.084;2023-09-19T07:11:29;1.35;;;0.60;;
64282;SDS011;50497;50.720;-2.084;2023-09-19T07:13:56;1.55;;;0.90;;
64282;SDS011;50497;50.720;-2.084;2023-09-19T07:16:21;0.60;;;0.60;;
64282;SDS011;50497;50.720;-2.084;2023-09-19T07:18:55;0.40;;;0.40;;
64282;SDS011;50497;50.720;-2.084;2023-09-19T07:21:21;2.40;;;1.00;;
64282;SDS011;50497;50.720;-2.084;2023-09-19T07:23:47;1.35;;;0.52;;
64282;SDS011;50497;50.720;-2.084;2023-09-19T07:26:13;2.28;;;1.00;;
64282;SDS011;50497;50.720;-2.084;2023-09-19T07:28:38;0.95;;;0.52;;
64282;SDS011;50497;50.720;-2.084;2023-09-19T07:31:04;1.90;;;0.95;;
64282;SDS011;50497;50.720;-2.084;2023-09-19T07:33:32;0.98;;;0.70;;
64282;SDS011;50497;50.720;-2.084;2023-09-19T07:35:57;3.10;;;1.23;;
64282;SDS011;50497;50.720;-2.084;2023-09-19T07:38:22;2.45;;;1.00;;
64282;SDS011;50497;50.720;-2.084;2023-09-19T07:40:48;1.30;;;0.68;;
64282;SDS011;50497;50.720;-2.084;2023-09-19T07:43:13;0.60;;;0.60;;
64282;SDS011;50497;50.720;-2.084;2023-09-19T07:45:39;1.30;;;0.70;;
64282;SDS011;50497;50.720;-2.084;2023-09-19T07:48:04;1.17;;;0.70;;
64282;SDS011;50497;50.720;-2.084;2023-09-19T07:50:32;2.75;;;1.00;;
64282;SDS011;50497;50.720;-2.084;2023-09-19T07:52:59;0.85;;;0.68;;
64282;SDS011;50497;50.720;-2.084;2023-09-19T07:55:24;0.40;;;0.40;;
64282;SDS011;50497;50.720;-2.084;2023-09-19T07:57:51;0.30;;;0.30;;
64282;SDS011;50497;50.720;-2.084;2023-09-19T08:00:17;0.50;;;0.50;;
64282;SDS011;50497;50.720;-2.084;2023-09-19T08:02:43;0.88;;;0.77;;
64282;SDS011;50497;50.720;-2.084;2023-09-19T08:05:09;1.08;;;0.80;;
64282;SDS011;50497;50.720;-2.084;2023-09-19T08:07:38;1.30;;;0.80;;
64282;SDS011;50497;50.720;-2.084;2023-09-19T08:10:05;2.47;;;1.02;;
64282;SDS011;50497;50.720;-2.084;2023-09-19T08:12:43;1.90;;;0.80;;
64282;SDS011;50497;50.720;-2.084;2023-09-19T08:15:13;4.35;;;1.38;;
64282;SDS011;50497;50.720;-2.084;2023-09-19T08:17:42;5.55;;;1.58;;
64282;SDS011;50497;50.720;-2.084;2023-09-19T08:20:08;4.50;;;1.60;;
64282;SDS011;50497;50.720;-2.084;2023-09-19T08:22:42;6.30;;;1.70;;
64282;SDS011;50497;50.720;-2.084;2023-09-19T08:25:15;3.17;;;1.20;;
64282;SDS011;50497;50.720;-2.084;2023-09-19T08:27:44;3.45;;;1.40;;
64282;SDS011;50497;50.720;-2.084;2023-09-19T08:30:13;4.32;;;1.50;;
64282;SDS011;50497;50.720;-2.084;2023-09-19T08:32:40;5.72;;;1.77;;
64282;SDS011;50497;50.720;-2.084;2023-09-19T08:35:07;4.72;;;1.60;;
64282;SDS011;50497;50.720;-2.084;2023-09-19T08:37:34;4.20;;;1.40;;
64282;SDS011;50497;50.720;-2.084;2023-09-19T08:39:59;4.82;;;1.40;;
64282;SDS011;50497;50.720;-2.084;2023-09-19T08:42:25;5.95;;;1.77;;
64282;SDS011;50497;50.720;-2.084;2023-09-19T08:44:50;5.38;;;1.77;;
64282;SDS011;50497;50.720;-2.084;2023-09-19T08:47:16;5.30;;;1.77;;
64282;SDS011;50497;50.720;-2.084;2023-09-19T08:52:43;5.65;;;1.77;;
64282;SDS011;50497;50.720;-2.084;2023-09-19T08:55:13;4.45;;;1.38;;
64282;SDS011;50497;50.720;-2.084;2023-09-19T08:57:45;5.95;;;1.80;;
64282;SDS011;50497;50.720;-2.084;2023-09-19T09:00:14;4.03;;;1.30;;
64282;SDS011;50497;50.720;-2.084;2023-09-19T09:02:42;5.80;;;1.83;;
64282;SDS011;50497;50.720;-2.084;2023-09-19T09:05:11;5.63;;;1.77;;
64282;SDS011;50497;50.720;-2.084;2023-09-19T09:07:37;5.45;;;1.90;;
64282;SDS011;50497;50.720;-2.084;2023-09-19T09:10:04;6.22;;;1.85;;
64282;SDS011;50497;50.720;-2.084;2023-09-19T09:12:30;5.95;;;1.65;;
64282;SDS011;50497;50.720;-2.084;2023-09-19T09:14:56;5.47;;;1.92;;
64282;SDS011;50497;50.720;-2.084;2023-09-19T09:17:22;6.30;;;2.00;;
64282;SDS011;50497;50.720;-2.084;2023-09-19T09:19:49;5.75;;;1.85;;
64282;SDS011;50497;50.720;-2.084;2023-09-19T09:22:17;6.63;;;2.28;;
64282;SDS011;50497;50.720;-2.084;2023-09-19T09:27:19;7.68;;;2.30;;
64282;SDS011;50497;50.720;-2.084;2023-09-19T09:29:46;8.15;;;2.20;;
64282;SDS011;50497;50.720;-2.084;2023-09-19T09:32:19;10.38;;;2.80;;
64282;SDS011;50497;50.720;-2.084;2023-09-19T09:34:46;10.05;;;2.47;;
64282;SDS011;50497;50.720;-2.084;2023-09-19T09:37:14;8.32;;;2.53;;
64282;SDS011;50497;50.720;-2.084;2023-09-19T09:39:48;7.43;;;2.65;;
64282;SDS011;50497;50.720;-2.084;2023-09-19T09:42:32;10.20;;;2.80;;
64282;SDS011;50497;50.720;-2.084;2023-09-19T09:47:57;11.40;;;2.85;;
64282;SDS011;50497;50.720;-2.084;2023-09-19T09:52:57;6.60;;;2.17;;
64282;SDS011;50497;50.720;-2.084;2023-09-19T09:55:36;8.07;;;2.40;;
64282;SDS011;50497;50.720;-2.084;2023-09-19T09:58:24;5.90;;;2.10;;
64282;SDS011;50497;50.720;-2.084;2023-09-19T10:00:54;7.35;;;2.10;;
64282;SDS011;50497;50.720;-2.084;2023-09-19T10:03:34;8.95;;;2.28;;
64282;SDS011;50497;50.720;-2.084;2023-09-19T10:06:05;6.60;;;2.13;;
64282;SDS011;50497;50.720;-2.084;2023-09-19T10:08:59;6.10;;;2.10;;
64282;SDS011;50497;50.720;-2.084;2023-09-19T10:11:40;7.55;;;2.47;;
64282;SDS011;50497;50.720;-2.084;2023-09-19T10:14:08;6.38;;;2.55;;
64282;SDS011;50497;50.720;-2.084;2023-09-19T10:16:37;5.95;;;1.92;;
64282;SDS011;50497;50.720;-2.084;2023-09-19T10:19:10;8.52;;;3.30;;
64282;SDS011;50497;50.720;-2.084;2023-09-19T10:21:40;3.80;;;1.45;;
64282;SDS011;50497;50.720;-2.084;2023-09-19T10:24:08;2.55;;;0.98;;
64282;SDS011;50497;50.720;-2.084;2023-09-19T10:26:34;5.55;;;2.00;;
64282;SDS011;50497;50.720;-2.084;2023-09-19T10:29:01;3.30;;;1.58;;
64282;SDS011;50497;50.720;-2.084;2023-09-19T10:31:29;6.65;;;2.10;;
64282;SDS011;50497;50.720;-2.084;2023-09-19T10:34:00;7.57;;;2.80;;
64282;SDS011;50497;50.720;-2.084;2023-09-19T10:36:29;7.93;;;2.65;;
64282;SDS011;50497;50.720;-2.084;2023-09-19T10:38:59;8.88;;;2.63;;
64282;SDS011;50497;50.720;-2.084;2023-09-19T10:41:29;8.63;;;2.70;;
64282;SDS011;50497;50.720;-2.084;2023-09-19T10:43:59;7.13;;;2.30;;
64282;SDS011;50497;50.720;-2.084;2023-09-19T10:46:28;9.43;;;2.70;;
64282;SDS011;50497;50.720;-2.084;2023-09-19T10:48:53;8.45;;;2.50;;
64282;SDS011;50497;50.720;-2.084;2023-09-19T10:51:25;8.70;;;2.60;;
64282;SDS011;50497;50.720;-2.084;2023-09-19T10:53:59;8.07;;;2.42;;
64282;SDS011;50497;50.720;-2.084;2023-09-19T10:56:33;6.20;;;1.90;;
64282;SDS011;50497;50.720;-2.084;2023-09-19T11:01:41;8.60;;;2.70;;
64282;SDS011;50497;50.720;-2.084;2023-09-19T11:04:22;7.13;;;2.75;;
64282;SDS011;50497;50.720;-2.084;2023-09-19T11:07:11;7.93;;;2.50;;
64282;SDS011;50497;50.720;-2.084;2023-09-19T11:12:12;6.40;;;2.08;;
64282;SDS011;50497;50.720;-2.084;2023-09-19T11:15:08;7.45;;;2.50;;
64282;SDS011;50497;50.720;-2.084;2023-09-19T11:17:36;7.65;;;2.00;;
64282;SDS011;50497;50.720;-2.084;2023-09-19T11:33:29;7.45;;;2.15;;
64282;SDS011;50497;50.720;-2.084;2023-09-19T11:36:05;4.35;;;1.63;;
64282;SDS011;50497;50.720;-2.084;2023-09-19T11:43:54;3.83;;;1.55;;
64282;SDS011;50497;50.720;-2.084;2023-09-19T11:49:16;4.63;;;2.13;;
64282;SDS011;50497;50.720;-2.084;2023-09-19T11:51:46;3.88;;;1.60;;
64282;SDS011;50497;50.720;-2.084;2023-09-19T11:54:15;3.88;;;1.33;;
64282;SDS011;50497;50.720;-2.084;2023-09-19T11:56:43;3.45;;;1.30;;
64282;SDS011;50497;50.720;-2.084;2023-09-19T11:59:19;3.33;;;1.40;;
64282;SDS011;50497;50.720;-2.084;2023-09-19T12:01:52;2.83;;;1.10;;
64282;SDS011;50497;50.720;-2.084;2023-09-19T12:07:06;3.53;;;1.23;;
64282;SDS011;50497;50.720;-2.084;2023-09-19T12:09:39;3.75;;;1.25;;
64282;SDS011;50497;50.720;-2.084;2023-09-19T12:12:08;2.92;;;1.00;;
64282;SDS011;50497;50.720;-2.084;2023-09-19T12:14:47;2.05;;;0.90;;
64282;SDS011;50497;50.720;-2.084;2023-09-19T12:17:13;2.08;;;0.98;;
64282;SDS011;50497;50.720;-2.084;2023-09-19T12:19:38;3.33;;;1.20;;
64282;SDS011;50497;50.720;-2.084;2023-09-19T12:22:04;1.17;;;0.70;;
64282;SDS011;50497;50.720;-2.084;2023-09-19T12:24:30;1.45;;;0.77;;
64282;SDS011;50497;50.720;-2.084;2023-09-19T12:27:05;0.00;;;0.00;;
64282;SDS011;50497;50.720;-2.084;2023-09-19T12:29:32;0.00;;;0.00;;
64282;SDS011;50497;50.720;-2.084;2023-09-19T12:32:07;0.00;;;0.00;;
64282;SDS011;50497;50.720;-2.084;2023-09-19T12:34:32;0.00;;;0.00;;
64282;SDS011;50497;50.720;-2.084;2023-09-19T12:39:44;0.00;;;0.00;;
64282;SDS011;50497;50.720;-2.084;2023-09-19T12:42:21;0.10;;;0.10;;
64282;SDS011;50497;50.720;-2.084;2023-09-19T12:44:49;0.50;;;0.50;;
64282;SDS011;50497;50.720;-2.084;2023-09-19T12:47:22;0.25;;;0.20;;
64282;SDS011;50497;50.720;-2.084;2023-09-19T12:50:05;0.00;;;0.00;;
64282;SDS011;50497;50.720;-2.084;2023-09-19T12:52:48;0.55;;;0.55;;
64282;SDS011;50497;50.720;-2.084;2023-09-19T12:55:21;0.30;;;0.30;;
64282;SDS011;50497;50.720;-2.084;2023-09-19T12:58:02;0.98;;;0.70;;
64282;SDS011;50497;50.720;-2.084;2023-09-19T13:00:36;1.25;;;0.60;;
64282;SDS011;50497;50.720;-2.084;2023-09-19T13:05:56;1.63;;;0.82;;
64282;SDS011;50497;50.720;-2.084;2023-09-19T13:08:32;2.83;;;1.10;;
64282;SDS011;50497;50.720;-2.084;2023-09-19T13:11:03;2.45;;;0.95;;
64282;SDS011;50497;50.720;-2.084;2023-09-19T13:13:32;2.33;;;0.88;;
64282;SDS011;50497;50.720;-2.084;2023-09-19T13:15:58;1.45;;;0.90;;
64282;SDS011;50497;50.720;-2.084;2023-09-19T13:21:07;4.22;;;1.20;;
64282;SDS011;50497;50.720;-2.084;2023-09-19T13:23:37;4.45;;;1.35;;
64282;SDS011;50497;50.720;-2.084;2023-09-19T13:26:03;3.80;;;1.35;;
64282;SDS011;50497;50.720;-2.084;2023-09-19T13:28:31;0.35;;;0.35;;
64282;SDS011;50497;50.720;-2.084;2023-09-19T13:30:56;5.25;;;1.92;;
64282;SDS011;50497;50.720;-2.084;2023-09-19T13:33:22;3.72;;;1.70;;
64282;SDS011;50497;50.720;-2.084;2023-09-19T13:35:47;4.35;;;1.83;;
64282;SDS011;50497;50.720;-2.084;2023-09-19T13:38:13;4.82;;;1.42;;
64282;SDS011;50497;50.720;-2.084;2023-09-19T13:40:39;3.72;;;1.83;;
64282;SDS011;50497;50.720;-2.084;2023-09-19T13:43:07;3.92;;;1.75;;
64282;SDS011;50497;50.720;-2.084;2023-09-19T13:45:33;2.20;;;1.00;;
64282;SDS011;50497;50.720;-2.084;2023-09-19T13:47:59;3.92;;;1.50;;
64282;SDS011;50497;50.720;-2.084;2023-09-19T13:50:24;7.90;;;2.50;;
64282;SDS011;50497;50.720;-2.084;2023-09-19T13:52:50;6.57;;;2.42;;
64282;SDS011;50497;50.720;-2.084;2023-09-19T13:57:45;5.80;;;2.05;;
64282;SDS011;50497;50.720;-2.084;2023-09-19T14:00:11;4.72;;;2.00;;
64282;SDS011;50497;50.720;-2.084;2023-09-19T14:02:39;4.75;;;1.65;;
64282;SDS011;50497;50.720;-2.084;2023-09-19T14:05:05;5.65;;;1.90;;
64282;SDS011;50497;50.720;-2.084;2023-09-19T14:07:31;6.97;;;1.80;;
64282;SDS011;50497;50.720;-2.084;2023-09-19T14:09:57;4.75;;;1.55;;
64282;SDS011;50497;50.720;-2.084;2023-09-19T14:12:22;4.95;;;1.80;;
64282;SDS011;50497;50.720;-2.084;2023-09-19T14:14:47;5.57;;;1.85;;
64282;SDS011;50497;50.720;-2.084;2023-09-19T14:17:15;3.35;;;1.33;;
64282;SDS011;50497;50.720;-2.084;2023-09-19T14:19:40;4.15;;;1.50;;
64282;SDS011;50497;50.720;-2.084;2023-09-19T14:22:08;4.22;;;1.58;;
64282;SDS011;50497;50.720;-2.084;2023-09-19T14:24:35;5.95;;;1.85;;
64282;SDS011;50497;50.720;-2.084;2023-09-19T14:27:00;6.78;;;1.90;;
64282;SDS011;50497;50.720;-2.084;2023-09-19T14:31:52;6.90;;;2.07;;
64282;SDS011;50497;50.720;-2.084;2023-09-19T14:34:17;6.10;;;1.90;;
64282;SDS011;50497;50.720;-2.084;2023-09-19T14:36:44;5.07;;;1.58;;
64282;SDS011;50497;50.720;-2.084;2023-09-19T14:39:13;5.22;;;1.60;;
64282;SDS011;50497;50.720;-2.084;2023-09-19T14:41:38;5.75;;;1.88;;
64282;SDS011;50497;50.720;-2.084;2023-09-19T14:44:03;6.22;;;1.92;;
64282;SDS011;50497;50.720;-2.084;2023-09-19T14:46:30;6.05;;;1.90;;
64282;SDS011;50497;50.720;-2.084;2023-09-19T14:48:56;5.30;;;1.60;;
64282;SDS011;50497;50.720;-2.084;2023-09-19T14:51:24;7.18;;;2.22;;
64282;SDS011;50497;50.720;-2.084;2023-09-19T14:53:50;5.82;;;2.20;;
64282;SDS011;50497;50.720;-2.084;2023-09-19T14:56:15;5.90;;;1.70;;
64282;SDS011;50497;50.720;-2.084;2023-09-19T14:58:43;6.90;;;1.60;;
64282;SDS011;50497;50.720;-2.084;2023-09-19T15:01:09;5.43;;;1.83;;
64282;SDS011;50497;50.720;-2.084;2023-09-19T15:03:36;4.82;;;1.98;;
64282;SDS011;50497;50.720;-2.084;2023-09-19T15:06:04;4.65;;;1.55;;
64282;SDS011;50497;50.720;-2.084;2023-09-19T15:08:34;5.28;;;1.73;;
64282;SDS011;50497;50.720;-2.084;2023-09-19T15:11:00;4.53;;;1.65;;
64282;SDS011;50497;50.720;-2.084;2023-09-19T15:13:31;5.38;;;2.42;;
64282;SDS011;50497;50.720;-2.084;2023-09-19T15:16:00;2.95;;;1.50;;
64282;SDS011;50497;50.720;-2.084;2023-09-19T15:18:27;3.70;;;1.38;;
64282;SDS011;50497;50.720;-2.084;2023-09-19T15:21:01;6.47;;;2.47;;
64282;SDS011;50497;50.720;-2.084;2023-09-19T15:23:28;3.80;;;1.17;;
64282;SDS011;50497;50.720;-2.084;2023-09-19T15:25:54;5.05;;;1.95;;
64282;SDS011;50497;50.720;-2.084;2023-09-19T15:28:21;5.75;;;1.80;;
64282;SDS011;50497;50.720;-2.084;2023-09-19T15:30:48;7.18;;;2.00;;
64282;SDS011;50497;50.720;-2.084;2023-09-19T15:33:14;5.70;;;1.92;;
64282;SDS011;50497;50.720;-2.084;2023-09-19T15:35:39;3.97;;;1.50;;
64282;SDS011;50497;50.720;-2.084;2023-09-19T15:38:05;2.80;;;1.30;;
64282;SDS011;50497;50.720;-2.084;2023-09-19T15:40:31;4.05;;;1.33;;
64282;SDS011;50497;50.720;-2.084;2023-09-19T15:42:56;4.88;;;1.50;;
64282;SDS011;50497;50.720;-2.084;2023-09-19T15:45:22;2.35;;;1.20;;
64282;SDS011;50497;50.720;-2.084;2023-09-19T15:47:50;0.65;;;0.57;;
64282;SDS011;50497;50.720;-2.084;2023-09-19T15:50:16;5.03;;;3.80;;
64282;SDS011;50497;50.720;-2.084;2023-09-19T15:55:07;4.87;;;1.67;;
64282;SDS011;50497;50.720;-2.084;2023-09-19T15:59:59;9.95;;;2.22;;
64282;SDS011;50497;50.720;-2.084;2023-09-19T16:02:24;7.55;;;2.35;;
64282;SDS011;50497;50.720;-2.084;2023-09-19T16:04:51;8.73;;;2.33;;